sensor_id;sensor_type;location;lat;lon;timestamp;pressure;altitude;pressure_sealevel;temperature;humidity
78309;BME280;67566;42.022;21.356;2023-04-25T00:01:59;97932.59;;;11.71;79.18
78309;BME280;67566;42.022;21.356;2023-04-25T00:04:25;97933.38;;;11.72;79.88
78309;BME280;67566;42.022;21.356;2023-04-25T00:06:52;97926.31;;;11.76;79.23
78309;BME280;67566;42.022;21.356;2023-04-25T00:09:18;97938.19;;;11.79;79.26
78309;BME280;67566;42.022;21.356;2023-04-25T00:11:44;97933.31;;;11.81;79.41
78309;BME280;67566;42.022;21.356;2023-04-25T00:14:09;97942.88;;;11.82;78.85
78309;BME280;67566;42.022;21.356;2023-04-25T00:16:35;97938.97;;;11.79;79.21
78309;BME280;67566;42.022;21.356;2023-04-25T00:19:01;97935.06;;;11.77;79.02
78309;BME280;67566;42.022;21.356;2023-04-25T00:21:27;97933.97;;;11.78;79.28
78309;BME280;67566;42.022;21.356;2023-04-25T00:23:53;97936.31;;;11.79;79.23
78309;BME280;67566;42.022;21.356;2023-04-25T00:26:19;97930.66;;;11.81;78.88
78309;BME280;67566;42.022;21.356;2023-04-25T00:28:46;97934.88;;;11.82;79.10
78309;BME280;67566;42.022;21.356;2023-04-25T00:31:12;97929.09;;;11.80;79.23
78309;BME280;67566;42.022;21.356;2023-04-25T00:33:38;97928.28;;;11.79;79.78
78309;BME280;67566;42.022;21.356;2023-04-25T00:36:03;97929.09;;;11.80;78.55
78309;BME280;67566;42.022;21.356;2023-04-25T00:38:29;97921.53;;;11.82;78.30
78309;BME280;67566;42.022;21.356;2023-04-25T00:40:54;97916.34;;;11.85;78.28
78309;BME280;67566;42.022;21.356;2023-04-25T00:43:21;97909.13;;;11.86;79.24
78309;BME280;67566;42.022;21.356;2023-04-25T00:45:47;97918.25;;;11.85;79.71
78309;BME280;67566;42.022;21.356;2023-04-25T00:48:17;97900.66;;;11.84;80.38
78309;BME280;67566;42.022;21.356;2023-04-25T00:50:52;97901.44;;;11.84;79.84
78309;BME280;67566;42.022;21.356;2023-04-25T00:53:23;97896.09;;;11.84;80.80
78309;BME280;67566;42.022;21.356;2023-04-25T00:55:50;97900.66;;;11.84;80.79
78309;BME280;67566;42.022;21.356;2023-04-25T00:58:21;97903.78;;;11.86;81.04
78309;BME280;67566;42.022;21.356;2023-04-25T01:00:48;97900.03;;;11.87;80.27
78309;BME280;67566;42.022;21.356;2023-04-25T01:03:15;97903.47;;;11.87;80.18
78309;BME280;67566;42.022;21.356;2023-04-25T01:05:43;97891.25;;;11.86;80.11
78309;BME280;67566;42.022;21.356;2023-04-25T01:08:09;97897.66;;;11.85;80.32
78309;BME280;67566;42.022;21.356;2023-04-25T01:10:35;97885.44;;;11.84;79.96
78309;BME280;67566;42.022;21.356;2023-04-25T01:13:00;97874.31;;;11.82;80.17
78309;BME280;67566;42.022;21.356;2023-04-25T01:15:26;97876.22;;;11.82;79.93
78309;BME280;67566;42.022;21.356;2023-04-25T01:17:52;97882.97;;;11.79;80.36
78309;BME280;67566;42.022;21.356;2023-04-25T01:20:21;97888.97;;;11.76;80.03
78309;BME280;67566;42.022;21.356;2023-04-25T01:22:47;97880.03;;;11.72;80.81
78309;BME280;67566;42.022;21.356;2023-04-25T01:25:13;97884.78;;;11.66;80.62
78309;BME280;67566;42.022;21.356;2023-04-25T01:27:39;97882.31;;;11.61;80.96
78309;BME280;67566;42.022;21.356;2023-04-25T01:30:05;97877.16;;;11.56;80.56
78309;BME280;67566;42.022;21.356;2023-04-25T01:32:32;97879.69;;;11.52;80.83
78309;BME280;67566;42.022;21.356;2023-04-25T01:35:04;97877.69;;;11.49;80.93
78309;BME280;67566;42.022;21.356;2023-04-25T01:37:41;97877.22;;;11.47;81.06
78309;BME280;67566;42.022;21.356;2023-04-25T01:40:10;97868.31;;;11.43;80.84
78309;BME280;67566;42.022;21.356;2023-04-25T01:42:38;97874.75;;;11.42;80.70
78309;BME280;67566;42.022;21.356;2023-04-25T01:45:04;97865.22;;;11.41;80.61
78309;BME280;67566;42.022;21.356;2023-04-25T01:47:30;97852.53;;;11.38;80.73
78309;BME280;67566;42.022;21.356;2023-04-25T01:49:56;97847.81;;;11.35;80.68
78309;BME280;67566;42.022;21.356;2023-04-25T01:52:21;97853.66;;;11.28;81.19
78309;BME280;67566;42.022;21.356;2023-04-25T01:54:47;97862.34;;;11.25;81.56
78309;BME280;67566;42.022;21.356;2023-04-25T01:57:13;97872.81;;;11.22;81.77
78309;BME280;67566;42.022;21.356;2023-04-25T01:59:38;97875.16;;;11.23;81.77
78309;BME280;67566;42.022;21.356;2023-04-25T02:02:05;97871.09;;;11.26;81.44
78309;BME280;67566;42.022;21.356;2023-04-25T02:04:30;97868.44;;;11.26;81.23
78309;BME280;67566;42.022;21.356;2023-04-25T02:06:56;97869.06;;;11.23;80.99
78309;BME280;67566;42.022;21.356;2023-04-25T02:09:22;97868.94;;;11.19;81.27
78309;BME280;67566;42.022;21.356;2023-04-25T02:11:47;97865.81;;;11.17;81.14
78309;BME280;67566;42.022;21.356;2023-04-25T02:14:13;97865.69;;;11.13;81.26
78309;BME280;67566;42.022;21.356;2023-04-25T02:16:38;97871.66;;;11.10;81.26
78309;BME280;67566;42.022;21.356;2023-04-25T02:19:05;97865.41;;;11.06;81.71
78309;BME280;67566;42.022;21.356;2023-04-25T02:21:31;97861.03;;;11.02;82.22
78309;BME280;67566;42.022;21.356;2023-04-25T02:23:57;97865.44;;;10.98;82.41
78309;BME280;67566;42.022;21.356;2023-04-25T02:26:22;97867.31;;;10.97;82.56
78309;BME280;67566;42.022;21.356;2023-04-25T02:28:49;97873.91;;;11.00;82.92
78309;BME280;67566;42.022;21.356;2023-04-25T02:31:16;97869.28;;;11.09;82.47
78309;BME280;67566;42.022;21.356;2023-04-25T02:33:41;97870.69;;;11.15;82.54
78309;BME280;67566;42.022;21.356;2023-04-25T02:36:07;97864.38;;;11.20;82.20
78309;BME280;67566;42.022;21.356;2023-04-25T02:38:33;97871.09;;;11.26;82.12
78309;BME280;67566;42.022;21.356;2023-04-25T02:40:58;97869.78;;;11.32;81.84
78309;BME280;67566;42.022;21.356;2023-04-25T02:43:24;97866.94;;;11.37;81.79
78309;BME280;67566;42.022;21.356;2023-04-25T02:45:49;97871.63;;;11.40;81.39
78309;BME280;67566;42.022;21.356;2023-04-25T02:48:15;97872.22;;;11.46;81.90
78309;BME280;67566;42.022;21.356;2023-04-25T02:50:40;97870.16;;;11.51;81.48
78309;BME280;67566;42.022;21.356;2023-04-25T02:53:06;97871.69;;;11.52;81.58
78309;BME280;67566;42.022;21.356;2023-04-25T02:55:31;97869.81;;;11.53;82.24
78309;BME280;67566;42.022;21.356;2023-04-25T02:57:56;97877.50;;;11.55;81.94
78309;BME280;67566;42.022;21.356;2023-04-25T03:00:22;97882.50;;;11.56;81.90
78309;BME280;67566;42.022;21.356;2023-04-25T03:02:48;97878.75;;;11.57;82.04
78309;BME280;67566;42.022;21.356;2023-04-25T03:05:13;97875.88;;;11.62;82.21
78309;BME280;67566;42.022;21.356;2023-04-25T03:07:39;97882.88;;;11.67;82.53
78309;BME280;67566;42.022;21.356;2023-04-25T03:10:06;97883.38;;;11.69;81.72
78309;BME280;67566;42.022;21.356;2023-04-25T03:12:32;97876.59;;;11.71;81.96
78309;BME280;67566;42.022;21.356;2023-04-25T03:14:57;97874.38;;;11.74;82.29
78309;BME280;67566;42.022;21.356;2023-04-25T03:17:23;97875.63;;;11.76;81.84
78309;BME280;67566;42.022;21.356;2023-04-25T03:19:48;97873.09;;;11.80;82.02
78309;BME280;67566;42.022;21.356;2023-04-25T03:22:13;97872.09;;;11.84;81.42
78309;BME280;67566;42.022;21.356;2023-04-25T03:24:39;97868.78;;;11.87;81.72
78309;BME280;67566;42.022;21.356;2023-04-25T03:27:05;97859.22;;;11.86;81.72
78309;BME280;67566;42.022;21.356;2023-04-25T03:29:30;97847.63;;;11.82;81.34
78309;BME280;67566;42.022;21.356;2023-04-25T03:31:56;97857.72;;;11.77;81.94
78309;BME280;67566;42.022;21.356;2023-04-25T03:34:21;97867.38;;;11.69;82.06
78309;BME280;67566;42.022;21.356;2023-04-25T03:36:47;97856.22;;;11.67;81.92
78309;BME280;67566;42.022;21.356;2023-04-25T03:39:12;97858.75;;;11.63;81.75
78309;BME280;67566;42.022;21.356;2023-04-25T03:41:38;97858.97;;;11.58;81.82
78309;BME280;67566;42.022;21.356;2023-04-25T03:44:03;97854.94;;;11.52;82.13
78309;BME280;67566;42.022;21.356;2023-04-25T03:46:29;97842.91;;;11.46;83.13
78309;BME280;67566;42.022;21.356;2023-04-25T03:48:55;97843.09;;;11.41;82.45
78309;BME280;67566;42.022;21.356;2023-04-25T03:51:20;97844.84;;;11.37;82.37
78309;BME280;67566;42.022;21.356;2023-04-25T03:53:45;97840.47;;;11.32;82.12
78309;BME280;67566;42.022;21.356;2023-04-25T03:56:11;97843.81;;;11.29;82.33
78309;BME280;67566;42.022;21.356;2023-04-25T03:58:36;97837.69;;;11.28;82.22
78309;BME280;67566;42.022;21.356;2023-04-25T04:01:02;97841.47;;;11.27;82.46
78309;BME280;67566;42.022;21.356;2023-04-25T04:03:34;97855.25;;;11.29;82.78
78309;BME280;67566;42.022;21.356;2023-04-25T04:06:04;97853.34;;;11.30;82.41
78309;BME280;67566;42.022;21.356;2023-04-25T04:08:31;97850.69;;;11.30;82.59
78309;BME280;67566;42.022;21.356;2023-04-25T04:10:57;97848.03;;;11.30;83.16
78309;BME280;67566;42.022;21.356;2023-04-25T04:13:25;97848.03;;;11.30;82.70
78309;BME280;67566;42.022;21.356;2023-04-25T04:15:50;97840.78;;;11.30;82.70
78309;BME280;67566;42.022;21.356;2023-04-25T04:18:16;97858.50;;;11.35;82.58
78309;BME280;67566;42.022;21.356;2023-04-25T04:20:41;97846.56;;;11.41;82.29
78309;BME280;67566;42.022;21.356;2023-04-25T04:23:07;97849.94;;;11.50;82.07
78309;BME280;67566;42.022;21.356;2023-04-25T04:25:32;97863.38;;;11.54;82.23
78309;BME280;67566;42.022;21.356;2023-04-25T04:27:57;97860.00;;;11.66;81.82
78309;BME280;67566;42.022;21.356;2023-04-25T04:30:24;97860.28;;;11.94;81.37
78309;BME280;67566;42.022;21.356;2023-04-25T04:32:51;97865.91;;;12.59;80.55
78309;BME280;67566;42.022;21.356;2023-04-25T04:35:16;97862.28;;;13.26;78.85
78309;BME280;67566;42.022;21.356;2023-04-25T04:37:42;97855.72;;;14.48;76.10
78309;BME280;67566;42.022;21.356;2023-04-25T04:40:09;97853.25;;;15.19;72.92
78309;BME280;67566;42.022;21.356;2023-04-25T04:42:34;97858.28;;;15.76;71.08
78309;BME280;67566;42.022;21.356;2023-04-25T04:45:01;97857.69;;;16.45;69.01
78309;BME280;67566;42.022;21.356;2023-04-25T04:47:28;97852.28;;;17.14;66.97
78309;BME280;67566;42.022;21.356;2023-04-25T04:49:56;97853.94;;;19.61;62.32
78309;BME280;67566;42.022;21.356;2023-04-25T04:52:22;97857.38;;;20.97;57.65
78309;BME280;67566;42.022;21.356;2023-04-25T04:54:47;97856.84;;;21.74;54.30
78309;BME280;67566;42.022;21.356;2023-04-25T04:57:13;97855.97;;;25.62;45.74
78309;BME280;67566;42.022;21.356;2023-04-25T04:59:38;97866.63;;;28.42;39.74
78309;BME280;67566;42.022;21.356;2023-04-25T05:02:04;97862.59;;;31.36;34.18
78309;BME280;67566;42.022;21.356;2023-04-25T05:04:29;97850.66;;;33.63;29.74
78309;BME280;67566;42.022;21.356;2023-04-25T05:06:55;97861.44;;;35.39;27.44
78309;BME280;67566;42.022;21.356;2023-04-25T05:09:20;97858.88;;;36.51;26.29
78309;BME280;67566;42.022;21.356;2023-04-25T05:11:50;97855.03;;;37.74;24.28
78309;BME280;67566;42.022;21.356;2023-04-25T05:14:16;97859.06;;;39.17;23.43
78309;BME280;67566;42.022;21.356;2023-04-25T05:16:43;97861.16;;;39.82;22.25
78309;BME280;67566;42.022;21.356;2023-04-25T05:19:08;97855.13;;;40.64;20.75
78309;BME280;67566;42.022;21.356;2023-04-25T05:21:34;97859.41;;;40.40;21.01
78309;BME280;67566;42.022;21.356;2023-04-25T05:24:00;97849.34;;;40.56;20.13
78309;BME280;67566;42.022;21.356;2023-04-25T05:26:25;97850.13;;;40.32;19.15
78309;BME280;67566;42.022;21.356;2023-04-25T05:28:51;97856.56;;;40.21;19.10
78309;BME280;67566;42.022;21.356;2023-04-25T05:31:17;97851.44;;;35.99;21.37
78309;BME280;67566;42.022;21.356;2023-04-25T05:33:42;97842.88;;;31.10;28.99
78309;BME280;67566;42.022;21.356;2023-04-25T05:36:08;97833.53;;;29.98;30.02
78309;BME280;67566;42.022;21.356;2023-04-25T05:38:33;97839.66;;;32.85;26.90
78309;BME280;67566;42.022;21.356;2023-04-25T05:40:59;97837.75;;;37.19;22.80
78309;BME280;67566;42.022;21.356;2023-04-25T05:43:24;97841.03;;;38.65;20.96
78309;BME280;67566;42.022;21.356;2023-04-25T05:45:50;97833.88;;;39.39;19.69
78309;BME280;67566;42.022;21.356;2023-04-25T05:48:15;97837.75;;;41.33;18.26
78309;BME280;67566;42.022;21.356;2023-04-25T05:50:41;97845.91;;;41.64;18.33
78309;BME280;67566;42.022;21.356;2023-04-25T05:53:06;97837.28;;;42.40;16.46
78309;BME280;67566;42.022;21.356;2023-04-25T05:55:32;97833.03;;;42.87;16.69
78309;BME280;67566;42.022;21.356;2023-04-25T05:57:57;97835.09;;;41.41;17.24
78309;BME280;67566;42.022;21.356;2023-04-25T06:00:23;97836.09;;;39.05;18.10
78309;BME280;67566;42.022;21.356;2023-04-25T06:02:49;97838.75;;;38.69;19.38
78309;BME280;67566;42.022;21.356;2023-04-25T06:05:14;97819.31;;;35.81;22.05
78309;BME280;67566;42.022;21.356;2023-04-25T06:07:40;97823.44;;;37.77;19.99
78309;BME280;67566;42.022;21.356;2023-04-25T06:10:06;97822.91;;;38.41;19.71
78309;BME280;67566;42.022;21.356;2023-04-25T06:12:32;97821.47;;;38.87;18.69
78309;BME280;67566;42.022;21.356;2023-04-25T06:14:59;97822.03;;;41.11;18.34
78309;BME280;67566;42.022;21.356;2023-04-25T06:17:24;97828.41;;;43.58;16.62
78309;BME280;67566;42.022;21.356;2023-04-25T06:19:50;97827.03;;;44.43;14.86
78309;BME280;67566;42.022;21.356;2023-04-25T06:22:15;97823.69;;;44.16;14.95
78309;BME280;67566;42.022;21.356;2023-04-25T06:24:41;97828.19;;;44.48;15.09
78309;BME280;67566;42.022;21.356;2023-04-25T06:27:06;97830.81;;;42.58;15.76
78309;BME280;67566;42.022;21.356;2023-04-25T06:29:31;97832.25;;;39.14;18.08
78309;BME280;67566;42.022;21.356;2023-04-25T06:31:57;97833.31;;;39.46;18.86
78309;BME280;67566;42.022;21.356;2023-04-25T06:34:22;97829.19;;;39.59;17.52
78309;BME280;67566;42.022;21.356;2023-04-25T06:36:48;97833.34;;;38.94;18.97
78309;BME280;67566;42.022;21.356;2023-04-25T06:39:13;97835.50;;;41.97;16.97
78309;BME280;67566;42.022;21.356;2023-04-25T06:41:39;97838.13;;;43.99;15.78
78309;BME280;67566;42.022;21.356;2023-04-25T06:44:04;97842.81;;;45.73;14.94
78309;BME280;67566;42.022;21.356;2023-04-25T06:46:30;97834.31;;;45.19;14.49
78309;BME280;67566;42.022;21.356;2023-04-25T06:48:55;97833.38;;;42.43;15.52
78309;BME280;67566;42.022;21.356;2023-04-25T06:51:21;97838.56;;;37.42;18.62
78309;BME280;67566;42.022;21.356;2023-04-25T06:53:46;97825.03;;;32.94;23.49
78309;BME280;67566;42.022;21.356;2023-04-25T06:56:12;97826.19;;;31.69;25.21
78309;BME280;67566;42.022;21.356;2023-04-25T06:58:37;97827.66;;;32.07;25.83
78309;BME280;67566;42.022;21.356;2023-04-25T07:01:03;97819.56;;;35.05;22.52
78309;BME280;67566;42.022;21.356;2023-04-25T07:03:28;97821.34;;;36.56;21.44
78309;BME280;67566;42.022;21.356;2023-04-25T07:05:54;97829.94;;;40.20;18.10
78309;BME280;67566;42.022;21.356;2023-04-25T07:08:20;97825.66;;;42.62;16.69
78309;BME280;67566;42.022;21.356;2023-04-25T07:10:46;97816.94;;;43.14;15.39
78309;BME280;67566;42.022;21.356;2023-04-25T07:13:11;97819.91;;;44.42;15.00
78309;BME280;67566;42.022;21.356;2023-04-25T07:15:37;97829.72;;;43.57;14.34
78309;BME280;67566;42.022;21.356;2023-04-25T07:18:03;97830.44;;;43.02;14.91
78309;BME280;67566;42.022;21.356;2023-04-25T07:20:28;97826.75;;;41.55;15.45
78309;BME280;67566;42.022;21.356;2023-04-25T07:22:56;97819.41;;;42.56;15.22
78309;BME280;67566;42.022;21.356;2023-04-25T07:25:21;97823.19;;;40.10;16.96
78309;BME280;67566;42.022;21.356;2023-04-25T07:27:47;97817.03;;;42.74;16.40
78309;BME280;67566;42.022;21.356;2023-04-25T07:30:12;97810.94;;;45.48;14.22
78309;BME280;67566;42.022;21.356;2023-04-25T07:32:39;97794.72;;;44.58;13.37
78309;BME280;67566;42.022;21.356;2023-04-25T07:35:05;97800.38;;;41.69;16.35
78309;BME280;67566;42.022;21.356;2023-04-25T07:37:32;97801.72;;;38.91;18.53
78309;BME280;67566;42.022;21.356;2023-04-25T07:39:58;97808.66;;;39.92;17.58
78309;BME280;67566;42.022;21.356;2023-04-25T07:42:23;97801.97;;;37.33;18.90
78309;BME280;67566;42.022;21.356;2023-04-25T07:44:49;97804.25;;;34.12;21.98
78309;BME280;67566;42.022;21.356;2023-04-25T07:47:15;97815.69;;;31.58;24.74
78309;BME280;67566;42.022;21.356;2023-04-25T07:49:40;97818.44;;;31.02;25.63
78309;BME280;67566;42.022;21.356;2023-04-25T07:52:06;97814.13;;;29.61;27.11
78309;BME280;67566;42.022;21.356;2023-04-25T07:54:32;97814.72;;;28.38;28.93
78309;BME280;67566;42.022;21.356;2023-04-25T07:56:58;97802.56;;;28.01;30.54
78309;BME280;67566;42.022;21.356;2023-04-25T07:59:23;97802.97;;;27.15;31.60
78309;BME280;67566;42.022;21.356;2023-04-25T08:01:49;97801.03;;;25.64;33.18
78309;BME280;67566;42.022;21.356;2023-04-25T08:04:15;97791.69;;;24.78;34.81
78309;BME280;67566;42.022;21.356;2023-04-25T08:06:41;97801.16;;;24.93;34.92
78309;BME280;67566;42.022;21.356;2023-04-25T08:09:07;97795.53;;;26.04;33.12
78309;BME280;67566;42.022;21.356;2023-04-25T08:11:34;97804.19;;;25.42;34.24
78309;BME280;67566;42.022;21.356;2023-04-25T08:14:00;97802.00;;;25.54;33.74
78309;BME280;67566;42.022;21.356;2023-04-25T08:16:26;97796.38;;;26.17;32.74
78309;BME280;67566;42.022;21.356;2023-04-25T08:18:51;97794.19;;;26.29;32.00
78309;BME280;67566;42.022;21.356;2023-04-25T08:21:17;97794.56;;;26.64;31.72
78309;BME280;67566;42.022;21.356;2023-04-25T08:23:42;97795.75;;;26.30;31.24
78309;BME280;67566;42.022;21.356;2023-04-25T08:26:08;97799.13;;;25.81;31.97
78309;BME280;67566;42.022;21.356;2023-04-25T08:28:33;97799.66;;;26.29;31.52
78309;BME280;67566;42.022;21.356;2023-04-25T08:30:59;97795.09;;;27.34;29.96
78309;BME280;67566;42.022;21.356;2023-04-25T08:33:25;97793.69;;;28.10;29.30
78309;BME280;67566;42.022;21.356;2023-04-25T08:35:51;97794.69;;;27.48;30.20
78309;BME280;67566;42.022;21.356;2023-04-25T08:38:17;97803.50;;;27.10;30.93
78309;BME280;67566;42.022;21.356;2023-04-25T08:40:43;97793.50;;;26.25;31.89
78309;BME280;67566;42.022;21.356;2023-04-25T08:43:09;97786.41;;;25.74;32.56
78309;BME280;67566;42.022;21.356;2023-04-25T08:45:41;97780.34;;;26.03;31.29
78309;BME280;67566;42.022;21.356;2023-04-25T08:48:10;97774.66;;;26.47;30.71
78309;BME280;67566;42.022;21.356;2023-04-25T08:50:40;97781.81;;;26.57;29.83
78309;BME280;67566;42.022;21.356;2023-04-25T08:53:09;97775.00;;;26.65;31.14
78309;BME280;67566;42.022;21.356;2023-04-25T08:55:40;97786.63;;;26.00;31.41
78309;BME280;67566;42.022;21.356;2023-04-25T08:58:07;97773.66;;;24.13;34.39
78309;BME280;67566;42.022;21.356;2023-04-25T09:00:32;97767.06;;;23.22;36.85
78309;BME280;67566;42.022;21.356;2023-04-25T09:02:58;97770.28;;;22.68;38.56
78309;BME280;67566;42.022;21.356;2023-04-25T09:05:24;97766.06;;;22.63;39.10
78309;BME280;67566;42.022;21.356;2023-04-25T09:07:50;97763.06;;;22.50;38.89
78309;BME280;67566;42.022;21.356;2023-04-25T09:10:15;97760.31;;;22.54;38.33
78309;BME280;67566;42.022;21.356;2023-04-25T09:12:41;97755.16;;;22.70;38.29
78309;BME280;67566;42.022;21.356;2023-04-25T09:15:12;97756.22;;;23.18;36.75
78309;BME280;67566;42.022;21.356;2023-04-25T09:17:41;97745.50;;;23.42;36.06
78309;BME280;67566;42.022;21.356;2023-04-25T09:20:11;97743.84;;;23.79;35.54
78309;BME280;67566;42.022;21.356;2023-04-25T09:22:38;97738.69;;;23.57;36.46
78309;BME280;67566;42.022;21.356;2023-04-25T09:25:11;97739.88;;;23.56;36.09
78309;BME280;67566;42.022;21.356;2023-04-25T09:27:49;97740.88;;;23.66;35.37
78309;BME280;67566;42.022;21.356;2023-04-25T09:30:16;97735.50;;;23.62;34.81
78309;BME280;67566;42.022;21.356;2023-04-25T09:32:43;97736.78;;;23.23;36.01
78309;BME280;67566;42.022;21.356;2023-04-25T09:35:09;97731.38;;;23.54;35.33
78309;BME280;67566;42.022;21.356;2023-04-25T09:37:34;97726.66;;;24.12;34.87
78309;BME280;67566;42.022;21.356;2023-04-25T09:40:00;97716.94;;;24.62;34.75
78309;BME280;67566;42.022;21.356;2023-04-25T09:42:31;97708.66;;;24.90;33.95
78309;BME280;67566;42.022;21.356;2023-04-25T09:44:58;97700.34;;;25.17;33.10
78309;BME280;67566;42.022;21.356;2023-04-25T09:47:26;97704.72;;;25.51;32.04
78309;BME280;67566;42.022;21.356;2023-04-25T09:49:52;97693.31;;;25.56;32.45
78309;BME280;67566;42.022;21.356;2023-04-25T09:52:20;97690.16;;;25.57;31.29
78309;BME280;67566;42.022;21.356;2023-04-25T09:54:47;97692.50;;;25.75;31.03
78309;BME280;67566;42.022;21.356;2023-04-25T09:59:46;97677.66;;;26.88;30.43
78309;BME280;67566;42.022;21.356;2023-04-25T10:02:18;97668.78;;;26.84;29.01
78309;BME280;67566;42.022;21.356;2023-04-25T10:04:49;97681.97;;;27.02;27.67
78309;BME280;67566;42.022;21.356;2023-04-25T10:07:18;97666.53;;;26.66;27.87
78309;BME280;67566;42.022;21.356;2023-04-25T10:09:47;97664.47;;;26.99;27.96
78309;BME280;67566;42.022;21.356;2023-04-25T10:12:13;97661.34;;;27.26;27.09
78309;BME280;67566;42.022;21.356;2023-04-25T10:14:39;97663.66;;;27.79;27.44
78309;BME280;67566;42.022;21.356;2023-04-25T10:17:05;97655.09;;;28.16;26.31
78309;BME280;67566;42.022;21.356;2023-04-25T10:19:32;97646.38;;;27.95;25.69
78309;BME280;67566;42.022;21.356;2023-04-25T10:22:11;97648.75;;;28.06;26.23
78309;BME280;67566;42.022;21.356;2023-04-25T10:24:39;97644.09;;;27.55;26.05
78309;BME280;67566;42.022;21.356;2023-04-25T10:27:06;97643.66;;;27.69;25.94
78309;BME280;67566;42.022;21.356;2023-04-25T10:29:32;97644.09;;;27.68;26.68
78309;BME280;67566;42.022;21.356;2023-04-25T10:31:57;97639.06;;;27.66;26.67
78309;BME280;67566;42.022;21.356;2023-04-25T10:34:37;97637.22;;;27.63;26.13
78309;BME280;67566;42.022;21.356;2023-04-25T10:37:03;97639.13;;;27.88;25.67
78309;BME280;67566;42.022;21.356;2023-04-25T10:39:29;97638.03;;;28.12;25.22
78309;BME280;67566;42.022;21.356;2023-04-25T10:41:58;97637.25;;;28.11;22.46
78309;BME280;67566;42.022;21.356;2023-04-25T10:44:27;97629.22;;;27.95;23.92
78309;BME280;67566;42.022;21.356;2023-04-25T10:47:00;97618.28;;;27.69;22.91
78309;BME280;67566;42.022;21.356;2023-04-25T10:49:33;97618.53;;;27.49;23.96
78309;BME280;67566;42.022;21.356;2023-04-25T10:52:27;97614.47;;;27.28;22.94
78309;BME280;67566;42.022;21.356;2023-04-25T10:54:57;97602.91;;;26.82;22.94
78309;BME280;67566;42.022;21.356;2023-04-25T10:57:45;97600.38;;;26.45;23.69
78309;BME280;67566;42.022;21.356;2023-04-25T11:00:22;97603.91;;;26.29;24.58
78309;BME280;67566;42.022;21.356;2023-04-25T11:02:58;97595.81;;;26.26;23.64
78309;BME280;67566;42.022;21.356;2023-04-25T11:05:31;97603.81;;;26.04;23.87
78309;BME280;67566;42.022;21.356;2023-04-25T11:07:57;97601.72;;;25.91;23.67
78309;BME280;67566;42.022;21.356;2023-04-25T11:10:32;97605.59;;;25.94;23.04
78309;BME280;67566;42.022;21.356;2023-04-25T11:12:58;97605.59;;;25.77;24.15
78309;BME280;67566;42.022;21.356;2023-04-25T11:15:25;97608.06;;;25.55;24.22
78309;BME280;67566;42.022;21.356;2023-04-25T11:17:52;97605.25;;;25.22;25.03
78309;BME280;67566;42.022;21.356;2023-04-25T11:20:17;97605.34;;;25.19;25.34
78309;BME280;67566;42.022;21.356;2023-04-25T11:22:45;97595.06;;;25.27;25.15
78309;BME280;67566;42.022;21.356;2023-04-25T11:25:13;97594.59;;;25.12;24.48
78309;BME280;67566;42.022;21.356;2023-04-25T11:27:59;97592.28;;;24.94;25.21
78309;BME280;67566;42.022;21.356;2023-04-25T11:30:26;97595.34;;;25.12;25.73
78309;BME280;67566;42.022;21.356;2023-04-25T11:32:52;97600.22;;;25.21;25.20
78309;BME280;67566;42.022;21.356;2023-04-25T11:35:19;97597.31;;;25.12;25.71
78309;BME280;67566;42.022;21.356;2023-04-25T11:37:45;97604.53;;;25.38;25.45
78309;BME280;67566;42.022;21.356;2023-04-25T11:40:11;97585.91;;;25.53;24.81
78309;BME280;67566;42.022;21.356;2023-04-25T11:42:43;97597.94;;;25.72;25.25
78309;BME280;67566;42.022;21.356;2023-04-25T11:45:10;97597.44;;;25.94;25.03
78309;BME280;67566;42.022;21.356;2023-04-25T11:47:36;97602.09;;;25.93;24.64
78309;BME280;67566;42.022;21.356;2023-04-25T11:50:04;97597.00;;;25.95;25.24
78309;BME280;67566;42.022;21.356;2023-04-25T11:52:47;97599.09;;;25.88;25.29
78309;BME280;67566;42.022;21.356;2023-04-25T11:55:14;97599.78;;;25.92;25.64
78309;BME280;67566;42.022;21.356;2023-04-25T11:57:42;97603.97;;;25.96;25.68
78309;BME280;67566;42.022;21.356;2023-04-25T12:00:10;97590.19;;;26.04;24.89
78309;BME280;67566;42.022;21.356;2023-04-25T12:02:46;97601.41;;;26.06;25.02
78309;BME280;67566;42.022;21.356;2023-04-25T12:05:14;97597.75;;;26.12;24.67
78309;BME280;67566;42.022;21.356;2023-04-25T12:07:43;97593.94;;;26.23;24.57
78309;BME280;67566;42.022;21.356;2023-04-25T12:10:10;97590.88;;;26.37;24.89
78309;BME280;67566;42.022;21.356;2023-04-25T12:12:37;97598.34;;;26.33;24.99
78309;BME280;67566;42.022;21.356;2023-04-25T12:17:45;97587.13;;;26.31;24.75
78309;BME280;67566;42.022;21.356;2023-04-25T12:20:16;97581.56;;;26.34;25.20
78309;BME280;67566;42.022;21.356;2023-04-25T12:22:44;97584.41;;;26.44;24.88
78309;BME280;67566;42.022;21.356;2023-04-25T12:25:13;97573.56;;;26.27;25.59
78309;BME280;67566;42.022;21.356;2023-04-25T12:28:20;97574.75;;;26.26;24.97
78309;BME280;67566;42.022;21.356;2023-04-25T12:31:05;97565.53;;;26.07;25.33
78309;BME280;67566;42.022;21.356;2023-04-25T12:33:35;97560.41;;;26.09;26.04
78309;BME280;67566;42.022;21.356;2023-04-25T12:36:03;97554.44;;;25.98;26.28
78309;BME280;67566;42.022;21.356;2023-04-25T12:38:36;97556.66;;;25.70;25.37
78309;BME280;67566;42.022;21.356;2023-04-25T12:41:02;97549.28;;;25.71;25.81
78309;BME280;67566;42.022;21.356;2023-04-25T12:43:28;97549.53;;;25.76;26.12
78309;BME280;67566;42.022;21.356;2023-04-25T12:45:55;97546.19;;;25.85;25.42
78309;BME280;67566;42.022;21.356;2023-04-25T12:48:21;97540.66;;;25.56;24.84
78309;BME280;67566;42.022;21.356;2023-04-25T12:50:48;97541.28;;;25.31;25.48
78309;BME280;67566;42.022;21.356;2023-04-25T12:53:18;97532.50;;;25.39;26.00
78309;BME280;67566;42.022;21.356;2023-04-25T12:55:44;97538.63;;;25.43;25.65